Time;durP1;ratioP1;P1;durP2;ratioP2;P2;SDS_P1;SDS_P2;PMS_P1;PMS_P2;Temp;Humidity;BMP_temperature;BMP_pressure;BME280_temperature;BME280_humidity;BME280_pressure;Samples;Min_cycle;Max_cycle;Signal;HPM_P1;HPM_P2
2023/08/07 00:02:03;;;;;;;1.33;0.80;;;13.10;99.90;;;;;;5059940;28;20863;-71
2023/08/07 00:04:30;;;;;;;0.80;0.80;;;13.10;99.90;;;;;;5058446;28;20436;-71
2023/08/07 00:06:57;;;;;;;0.80;0.80;;;13.10;99.90;;;;;;5066552;28;20447;-70
2023/08/07 00:09:24;;;;;;;0.90;0.90;;;13.10;99.90;;;;;;5038004;28;21021;-71
2023/08/07 00:11:52;;;;;;;1.40;1.30;;;13.10;99.90;;;;;;5063560;28;20432;-71
2023/08/07 00:14:19;;;;;;;4.13;1.20;;;13.10;99.90;;;;;;5061689;28;20450;-71
2023/08/07 00:16:46;;;;;;;1.10;0.97;;;13.10;99.90;;;;;;5054295;28;20444;-71
2023/08/07 00:19:13;;;;;;;2.00;1.30;;;13.10;99.90;;;;;;5054794;28;21055;-71
2023/08/07 00:21:39;;;;;;;1.00;1.00;;;13.10;99.90;;;;;;5056175;28;20514;-70
2023/08/07 00:24:06;;;;;;;1.70;1.30;;;13.20;99.90;;;;;;5061383;28;20953;-71
2023/08/07 00:26:33;;;;;;;1.60;1.43;;;13.10;99.90;;;;;;5062931;28;20457;-71
2023/08/07 00:29:01;;;;;;;1.00;1.00;;;13.10;99.90;;;;;;5054166;28;20476;-70
2023/08/07 00:31:31;;;;;;;2.20;2.10;;;13.10;99.90;;;;;;5066461;28;20448;-70
2023/08/07 00:33:58;;;;;;;2.10;1.07;;;13.10;99.90;;;;;;5059059;28;20561;-71
2023/08/07 00:36:25;;;;;;;1.33;1.30;;;13.00;99.90;;;;;;5057707;28;20539;-71
2023/08/07 00:38:52;;;;;;;1.97;1.37;;;13.00;99.90;;;;;;5065982;28;20482;-71
2023/08/07 00:41:19;;;;;;;1.43;1.43;;;13.00;99.90;;;;;;5053954;28;20537;-70
2023/08/07 00:43:46;;;;;;;1.00;1.00;;;13.00;99.90;;;;;;5063589;28;20488;-71
2023/08/07 00:46:15;;;;;;;1.07;0.87;;;13.00;99.90;;;;;;5058775;28;20462;-71
2023/08/07 00:48:41;;;;;;;3.13;1.33;;;13.10;99.90;;;;;;5056077;28;20474;-71
2023/08/07 00:51:09;;;;;;;1.20;1.10;;;13.10;99.90;;;;;;5067050;28;20451;-71
2023/08/07 00:53:39;;;;;;;1.73;1.20;;;13.10;99.90;;;;;;5050416;28;20453;-71
2023/08/07 00:56:06;;;;;;;1.93;1.20;;;13.00;99.90;;;;;;5050224;28;20531;-71
2023/08/07 00:58:33;;;;;;;3.47;1.30;;;13.00;99.90;;;;;;5050779;28;20578;-71
2023/08/07 01:01:00;;;;;;;1.23;1.13;;;13.00;99.90;;;;;;5051277;28;21040;-71
2023/08/07 01:03:28;;;;;;;1.30;1.20;;;13.00;99.90;;;;;;5050912;28;20625;-71
2023/08/07 01:05:55;;;;;;;2.30;1.17;;;13.00;99.90;;;;;;5050299;28;20812;-70
2023/08/07 01:08:22;;;;;;;2.83;0.97;;;13.00;99.90;;;;;;5050472;28;21043;-71
2023/08/07 01:11:07;;;;;;;1.60;1.30;;;13.00;99.90;;;;;;5050798;28;20455;-70
2023/08/07 01:13:41;;;;;;;0.70;0.70;;;13.00;99.90;;;;;;5050718;28;20443;-70
2023/08/07 01:16:14;;;;;;;1.13;1.10;;;12.90;99.90;;;;;;5049646;28;20453;-71
2023/08/07 01:18:43;;;;;;;1.00;1.00;;;12.90;99.90;;;;;;5050129;28;20815;-70
2023/08/07 01:21:18;;;;;;;4.70;2.50;;;12.80;99.90;;;;;;5050601;28;20455;-70
2023/08/07 01:23:47;;;;;;;1.90;1.00;;;12.80;99.90;;;;;;5050516;28;21019;-71
2023/08/07 01:26:14;;;;;;;3.07;1.30;;;12.80;99.90;;;;;;5049752;28;20928;-70
2023/08/07 01:28:47;;;;;;;1.37;1.27;;;12.80;99.90;;;;;;5050336;28;20472;-71
2023/08/07 01:31:21;;;;;;;1.10;1.10;;;12.80;99.90;;;;;;5050215;28;20447;-71
2023/08/07 01:33:54;;;;;;;1.60;1.50;;;12.70;99.90;;;;;;5050193;28;20443;-71
2023/08/07 01:36:22;;;;;;;1.30;1.30;;;12.70;99.90;;;;;;5049497;28;20452;-71
2023/08/07 01:38:53;;;;;;;1.77;0.90;;;12.70;99.90;;;;;;5049945;28;20483;-71
2023/08/07 01:41:20;;;;;;;1.80;1.60;;;12.70;99.90;;;;;;5050080;28;20461;-71
2023/08/07 01:43:47;;;;;;;2.17;1.10;;;12.70;99.90;;;;;;5049880;28;20487;-71
2023/08/07 01:46:14;;;;;;;5.53;1.37;;;12.60;99.90;;;;;;5048030;28;21039;-70
2023/08/07 01:48:41;;;;;;;0.80;0.80;;;12.70;99.90;;;;;;5050028;28;20468;-70
2023/08/07 01:51:08;;;;;;;2.83;0.97;;;12.60;99.90;;;;;;5049896;28;20966;-70
2023/08/07 01:53:34;;;;;;;1.40;1.30;;;12.60;99.90;;;;;;5049942;28;20449;-70
2023/08/07 01:56:03;;;;;;;2.67;1.70;;;12.60;99.90;;;;;;5049016;28;20461;-71
2023/08/07 01:58:30;;;;;;;1.00;1.00;;;12.70;99.90;;;;;;5049502;28;20468;-70
2023/08/07 02:00:57;;;;;;;1.00;0.90;;;12.60;99.90;;;;;;5048706;28;20639;-71
2023/08/07 02:03:23;;;;;;;1.50;1.17;;;12.60;99.90;;;;;;5049539;28;20497;-71
2023/08/07 02:05:50;;;;;;;1.10;0.97;;;12.50;99.90;;;;;;5049110;28;20447;-70
2023/08/07 02:08:17;;;;;;;1.73;1.47;;;12.50;99.90;;;;;;5049053;28;20478;-70
2023/08/07 02:10:45;;;;;;;1.13;1.13;;;12.50;99.90;;;;;;5049514;28;20477;-70
2023/08/07 02:13:13;;;;;;;1.00;1.00;;;12.50;99.90;;;;;;5049465;28;21062;-70
2023/08/07 02:15:40;;;;;;;1.37;0.80;;;12.60;99.90;;;;;;5049460;28;20451;-70
2023/08/07 02:18:06;;;;;;;2.87;2.50;;;12.60;99.90;;;;;;5048845;28;20557;-70
2023/08/07 02:20:33;;;;;;;1.73;1.63;;;12.60;99.90;;;;;;5049334;28;20447;-70
2023/08/07 02:23:00;;;;;;;2.77;1.33;;;12.60;99.90;;;;;;5049121;28;20539;-70
2023/08/07 02:25:27;;;;;;;3.03;1.07;;;12.60;99.90;;;;;;5049359;28;20470;-70
2023/08/07 02:27:54;;;;;;;1.00;1.00;;;12.60;99.90;;;;;;5048247;28;20466;-70
2023/08/07 02:30:22;;;;;;;1.50;1.40;;;12.60;99.90;;;;;;5049114;28;20456;-70
2023/08/07 02:32:49;;;;;;;4.07;1.70;;;12.60;99.90;;;;;;5048698;28;20462;-70
2023/08/07 02:35:16;;;;;;;1.50;1.40;;;12.60;99.90;;;;;;5048884;28;20461;-70
2023/08/07 02:37:43;;;;;;;1.20;1.10;;;12.60;99.90;;;;;;5047722;28;20864;-71
2023/08/07 02:40:13;;;;;;;1.33;1.30;;;12.60;99.90;;;;;;5049060;28;20548;-70
2023/08/07 02:42:40;;;;;;;1.80;1.70;;;12.60;99.90;;;;;;5048323;28;21021;-70
2023/08/07 02:45:08;;;;;;;1.63;1.53;;;12.50;99.90;;;;;;5049121;28;20497;-71
2023/08/07 02:47:36;;;;;;;1.40;1.30;;;12.60;99.90;;;;;;5047052;28;20551;-70
2023/08/07 02:50:03;;;;;;;1.90;1.80;;;12.60;99.90;;;;;;5049122;28;20454;-71
2023/08/07 02:52:30;;;;;;;2.53;1.93;;;12.50;99.90;;;;;;5048876;28;20450;-70
2023/08/07 02:54:58;;;;;;;1.90;1.80;;;12.60;99.90;;;;;;5048598;28;20450;-71
2023/08/07 02:57:25;;;;;;;3.60;1.83;;;12.60;99.90;;;;;;5047986;28;20479;-70
2023/08/07 02:59:52;;;;;;;2.23;2.07;;;12.60;99.90;;;;;;5048749;28;20918;-70
2023/08/07 03:02:19;;;;;;;1.93;1.63;;;12.60;99.90;;;;;;5048327;28;20547;-70
2023/08/07 03:04:47;;;;;;;2.63;2.27;;;12.60;99.90;;;;;;5048671;28;20495;-70
2023/08/07 03:07:14;;;;;;;4.60;2.20;;;12.60;99.90;;;;;;5047772;28;20444;-70
2023/08/07 03:09:41;;;;;;;2.87;2.33;;;12.60;99.90;;;;;;5048512;28;20605;-70
2023/08/07 03:12:08;;;;;;;4.60;2.50;;;12.60;99.90;;;;;;5048015;28;20459;-71
2023/08/07 03:14:35;;;;;;;2.60;2.40;;;12.60;99.90;;;;;;5047953;28;20546;-70
2023/08/07 03:17:02;;;;;;;5.83;2.70;;;12.50;99.90;;;;;;5047644;28;20561;-70
2023/08/07 03:19:29;;;;;;;6.10;3.13;;;12.50;99.90;;;;;;5048539;28;21297;-71
2023/08/07 03:21:57;;;;;;;4.70;2.40;;;12.50;99.90;;;;;;5048385;28;20458;-70
2023/08/07 03:24:24;;;;;;;2.63;2.10;;;12.50;99.90;;;;;;5048409;28;20486;-70
2023/08/07 03:26:51;;;;;;;2.87;2.60;;;12.50;99.90;;;;;;5047553;28;20458;-70
2023/08/07 03:29:18;;;;;;;4.70;2.30;;;12.50;99.90;;;;;;5048101;28;20471;-70
2023/08/07 03:31:44;;;;;;;4.20;3.33;;;12.50;99.90;;;;;;5048087;28;20451;-71
2023/08/07 03:34:11;;;;;;;3.37;2.10;;;12.50;99.90;;;;;;5048276;28;20455;-70
2023/08/07 03:36:38;;;;;;;3.13;2.83;;;12.50;99.90;;;;;;5047380;28;20446;-70
2023/08/07 03:39:06;;;;;;;3.50;2.70;;;12.50;99.90;;;;;;5047998;28;21077;-71
2023/08/07 03:41:33;;;;;;;3.63;3.30;;;12.50;99.90;;;;;;5044730;28;20461;-70
2023/08/07 03:44:00;;;;;;;3.33;2.60;;;12.50;99.90;;;;;;5048347;28;20502;-70
2023/08/07 03:46:27;;;;;;;3.53;2.90;;;12.50;99.90;;;;;;5045858;28;21221;-71
2023/08/07 03:48:53;;;;;;;2.77;2.53;;;12.50;99.90;;;;;;5047913;28;20471;-70
2023/08/07 03:51:20;;;;;;;8.30;3.10;;;12.60;99.90;;;;;;5047851;28;20572;-70
2023/08/07 03:53:47;;;;;;;3.33;2.97;;;12.50;99.90;;;;;;5047888;28;20446;-70
2023/08/07 03:56:15;;;;;;;4.57;3.23;;;12.50;99.90;;;;;;5046703;28;20619;-70
2023/08/07 03:58:43;;;;;;;5.83;3.10;;;12.50;99.90;;;;;;5047805;28;20474;-70
2023/08/07 04:01:10;;;;;;;5.90;2.90;;;12.50;99.90;;;;;;5047761;28;20459;-70
2023/08/07 04:03:38;;;;;;;4.07;2.43;;;12.50;99.90;;;;;;5047678;28;20456;-69
2023/08/07 04:06:05;;;;;;;4.57;3.10;;;12.50;99.90;;;;;;5046967;28;20459;-70
2023/08/07 04:08:32;;;;;;;3.63;2.80;;;12.50;99.90;;;;;;5047555;28;20507;-70
2023/08/07 04:11:00;;;;;;;5.03;4.20;;;12.50;99.90;;;;;;5048050;28;20538;-70
2023/08/07 04:13:29;;;;;;;3.40;2.80;;;12.50;99.90;;;;;;5048109;28;20458;-70
2023/08/07 04:15:56;;;;;;;5.97;3.30;;;12.50;99.90;;;;;;5047378;28;20530;-71
2023/08/07 04:18:23;;;;;;;3.30;3.10;;;12.50;99.90;;;;;;5047630;28;20840;-70
2023/08/07 04:20:51;;;;;;;2.97;2.77;;;12.50;99.90;;;;;;5047326;28;20450;-71
2023/08/07 04:23:18;;;;;;;2.97;2.57;;;12.50;99.90;;;;;;5047530;28;20552;-70
2023/08/07 04:25:45;;;;;;;3.03;2.80;;;12.50;99.90;;;;;;5050771;28;20858;-71
2023/08/07 04:28:12;;;;;;;4.23;3.93;;;12.50;99.90;;;;;;5050780;28;20853;-71
2023/08/07 04:30:41;;;;;;;6.70;3.90;;;12.50;99.90;;;;;;5051355;28;20447;-70
2023/08/07 04:33:08;;;;;;;7.20;3.47;;;12.50;99.90;;;;;;5051181;28;20455;-69
2023/08/07 04:35:35;;;;;;;4.03;2.87;;;12.50;99.90;;;;;;5051107;28;20450;-71
2023/08/07 04:38:03;;;;;;;7.30;3.90;;;12.50;99.90;;;;;;5050533;28;20482;-70
2023/08/07 04:40:30;;;;;;;3.70;3.37;;;12.50;99.90;;;;;;5051374;28;20471;-70
2023/08/07 04:42:57;;;;;;;4.30;3.13;;;12.60;99.90;;;;;;5051131;28;20461;-70
2023/08/07 04:45:24;;;;;;;4.90;3.27;;;12.60;99.90;;;;;;5050802;28;20496;-70
2023/08/07 04:47:52;;;;;;;4.93;3.20;;;12.50;99.90;;;;;;5048396;28;20945;-71
2023/08/07 04:50:19;;;;;;;4.50;2.83;;;12.50;99.90;;;;;;5051058;28;20487;-71
2023/08/07 04:52:46;;;;;;;8.93;4.97;;;12.50;99.90;;;;;;5050682;28;20961;-70
2023/08/07 04:55:12;;;;;;;4.70;3.10;;;12.50;99.90;;;;;;5050899;28;20826;-71
2023/08/07 04:57:39;;;;;;;3.37;3.00;;;12.50;99.90;;;;;;5049761;28;20463;-71
2023/08/07 05:00:07;;;;;;;5.87;3.37;;;12.50;99.90;;;;;;5050554;28;20461;-70
2023/08/07 05:02:34;;;;;;;4.37;4.07;;;12.50;99.90;;;;;;5050810;28;20452;-70
2023/08/07 05:05:04;;;;;;;6.07;4.57;;;12.40;99.90;;;;;;5050796;28;20490;-71
2023/08/07 05:07:30;;;;;;;8.03;3.63;;;12.40;99.90;;;;;;5050110;28;21072;-71
2023/08/07 05:09:59;;;;;;;6.70;3.83;;;12.40;99.90;;;;;;5050858;28;20456;-70
2023/08/07 05:12:26;;;;;;;4.27;3.40;;;12.40;99.90;;;;;;5050500;28;20579;-71
2023/08/07 05:14:53;;;;;;;3.87;3.57;;;12.50;99.90;;;;;;5050209;28;20451;-71
2023/08/07 05:17:19;;;;;;;4.33;3.00;;;12.40;99.90;;;;;;5049485;28;20451;-71
2023/08/07 05:19:46;;;;;;;5.07;4.57;;;12.40;99.90;;;;;;5050505;28;20498;-70
2023/08/07 05:22:14;;;;;;;7.17;4.50;;;12.40;99.90;;;;;;5050193;28;20940;-71
2023/08/07 05:24:43;;;;;;;9.07;4.07;;;12.40;99.90;;;;;;5049955;28;20479;-72
2023/08/07 05:27:10;;;;;;;4.70;4.20;;;12.50;99.90;;;;;;5049184;28;21028;-69
2023/08/07 05:29:43;;;;;;;3.93;3.50;;;12.50;99.90;;;;;;5050405;28;20447;-71
2023/08/07 05:32:10;;;;;;;3.60;3.30;;;12.50;99.90;;;;;;5050024;28;20838;-70
2023/08/07 05:34:37;;;;;;;4.43;3.50;;;12.50;99.90;;;;;;5050244;28;20900;-71
2023/08/07 05:37:04;;;;;;;3.60;3.30;;;12.50;99.90;;;;;;5048507;28;20452;-72
2023/08/07 05:39:32;;;;;;;4.30;3.00;;;12.50;99.90;;;;;;5065187;22;20506;-66
2023/08/07 05:41:59;;;;;;;7.07;3.10;;;12.50;99.90;;;;;;5042631;28;20446;-66
2023/08/07 05:44:26;;;;;;;4.57;3.87;;;12.50;99.90;;;;;;5048216;28;20984;-66
2023/08/07 05:46:53;;;;;;;5.43;3.77;;;12.60;99.90;;;;;;5040752;28;20499;-65
2023/08/07 05:49:20;;;;;;;4.33;3.30;;;12.60;99.90;;;;;;5049684;28;20485;-66
2023/08/07 05:51:47;;;;;;;4.90;3.57;;;12.60;99.90;;;;;;5049784;28;20455;-66
2023/08/07 05:54:14;;;;;;;4.57;3.73;;;12.60;99.90;;;;;;5048767;28;20449;-66
2023/08/07 05:56:42;;;;;;;5.10;3.30;;;12.60;99.90;;;;;;5048896;28;20444;-65
2023/08/07 05:59:09;;;;;;;6.83;3.60;;;12.60;99.90;;;;;;5043723;28;20481;-66
2023/08/07 06:01:36;;;;;;;5.00;3.03;;;12.60;99.90;;;;;;5047174;28;20455;-66
2023/08/07 06:04:04;;;;;;;4.63;4.03;;;12.60;99.90;;;;;;5049575;28;20623;-66
2023/08/07 06:06:34;;;;;;;4.50;3.13;;;12.60;99.90;;;;;;5048901;28;21023;-66
2023/08/07 06:09:01;;;;;;;3.83;2.90;;;12.60;99.90;;;;;;5049477;28;20509;-66
2023/08/07 06:11:28;;;;;;;3.40;3.07;;;12.60;99.90;;;;;;5049396;28;20518;-66
2023/08/07 06:13:56;;;;;;;4.60;3.63;;;12.60;99.90;;;;;;5049173;28;20451;-66
2023/08/07 06:16:23;;;;;;;4.70;3.20;;;12.70;99.90;;;;;;5047796;28;20938;-66
2023/08/07 06:18:50;;;;;;;4.10;3.33;;;12.70;99.90;;;;;;5048459;28;20553;-66
2023/08/07 06:21:17;;;;;;;3.97;3.00;;;12.70;99.90;;;;;;5049094;28;21003;-66
2023/08/07 06:23:44;;;;;;;3.70;3.40;;;12.70;99.90;;;;;;5046868;28;20542;-66
2023/08/07 06:26:10;;;;;;;6.00;3.40;;;12.70;99.90;;;;;;5042444;28;20571;-66
2023/08/07 06:28:37;;;;;;;5.13;3.70;;;12.70;99.90;;;;;;5049297;28;20488;-65
2023/08/07 06:31:07;;;;;;;3.63;3.33;;;12.70;99.90;;;;;;5049364;28;20539;-67
2023/08/07 06:33:34;;;;;;;4.90;3.13;;;12.70;99.90;;;;;;5049132;28;21265;-66
2023/08/07 06:36:00;;;;;;;5.90;3.47;;;12.70;99.90;;;;;;5048395;28;20456;-66
2023/08/07 06:38:27;;;;;;;5.90;3.50;;;12.80;99.90;;;;;;5048686;28;20858;-66
2023/08/07 06:40:53;;;;;;;5.50;3.53;;;12.80;99.90;;;;;;5047960;28;20530;-66
2023/08/07 06:43:21;;;;;;;8.00;4.40;;;12.80;99.90;;;;;;5048824;28;20571;-66
2023/08/07 06:45:50;;;;;;;4.50;3.17;;;12.80;99.90;;;;;;5048487;28;21039;-66
2023/08/07 06:48:18;;;;;;;6.60;3.07;;;12.80;99.90;;;;;;5048365;28;20575;-66
2023/08/07 06:50:45;;;;;;;5.23;3.43;;;12.80;99.90;;;;;;5048487;28;20537;-66
2023/08/07 06:53:12;;;;;;;3.50;3.20;;;12.90;99.90;;;;;;5048444;28;20458;-66
2023/08/07 06:55:38;;;;;;;3.40;3.10;;;12.80;99.90;;;;;;5045199;28;20546;-66
2023/08/07 06:58:05;;;;;;;5.43;3.53;;;12.90;99.90;;;;;;5044837;28;20475;-65
2023/08/07 07:00:33;;;;;;;7.63;3.23;;;12.90;99.90;;;;;;5040573;28;20463;-65
2023/08/07 07:03:00;;;;;;;5.20;4.70;;;12.90;99.90;;;;;;5044954;28;20525;-66
2023/08/07 07:05:30;;;;;;;4.53;3.00;;;12.90;99.90;;;;;;5039574;28;20594;-66
2023/08/07 07:07:57;;;;;;;2.97;2.60;;;12.90;99.90;;;;;;5032290;28;20514;-67
2023/08/07 07:10:24;;;;;;;7.00;3.23;;;13.00;99.90;;;;;;5045269;28;20458;-66
2023/08/07 07:12:51;;;;;;;4.67;3.03;;;13.00;99.90;;;;;;5036036;28;20463;-66
2023/08/07 07:15:18;;;;;;;6.03;3.70;;;13.00;99.90;;;;;;5040352;28;20452;-66
2023/08/07 07:17:45;;;;;;;5.00;3.47;;;13.10;99.90;;;;;;5037806;28;20560;-66
2023/08/07 07:20:12;;;;;;;4.20;2.90;;;13.10;99.90;;;;;;5039784;28;20974;-65
2023/08/07 07:22:40;;;;;;;4.40;3.70;;;13.20;99.90;;;;;;5046205;28;21015;-66
2023/08/07 07:25:08;;;;;;;3.87;3.47;;;13.20;99.90;;;;;;5038825;28;21071;-66
2023/08/07 07:27:35;;;;;;;7.60;3.77;;;13.30;99.90;;;;;;5045133;28;20547;-66
2023/08/07 07:30:02;;;;;;;4.00;3.27;;;13.30;99.90;;;;;;5046054;28;20836;-66
2023/08/07 07:32:29;;;;;;;6.80;4.13;;;13.30;99.90;;;;;;5028270;28;20544;-65
2023/08/07 07:34:56;;;;;;;6.43;3.13;;;13.40;99.90;;;;;;5040246;28;20444;-66
2023/08/07 07:37:23;;;;;;;5.40;4.43;;;13.40;99.90;;;;;;5042720;28;20465;-66
2023/08/07 07:39:51;;;;;;;4.40;3.07;;;13.40;99.90;;;;;;5039512;28;20464;-66
2023/08/07 07:42:18;;;;;;;7.20;3.20;;;13.40;99.90;;;;;;5039604;28;20464;-66
2023/08/07 07:44:44;;;;;;;8.57;3.40;;;13.50;99.90;;;;;;5044411;28;20456;-67
2023/08/07 07:47:11;;;;;;;3.97;2.63;;;13.50;99.90;;;;;;5033903;28;20463;-66
2023/08/07 07:49:38;;;;;;;6.83;3.83;;;13.40;99.90;;;;;;5034269;28;20471;-66
2023/08/07 07:52:06;;;;;;;6.47;3.50;;;13.40;99.90;;;;;;5039712;28;20471;-66
2023/08/07 07:54:33;;;;;;;4.67;2.50;;;13.40;99.90;;;;;;5039221;28;20964;-66
2023/08/07 07:57:01;;;;;;;7.47;2.80;;;13.40;99.90;;;;;;5032582;28;20542;-67
2023/08/07 07:59:28;;;;;;;3.90;3.23;;;13.30;99.90;;;;;;5028294;28;20469;-65
2023/08/07 08:01:55;;;;;;;3.33;2.70;;;13.30;99.90;;;;;;5030225;28;20546;-66
2023/08/07 08:04:22;;;;;;;3.37;3.07;;;13.40;99.90;;;;;;5039729;28;20485;-66
2023/08/07 08:06:49;;;;;;;3.13;2.90;;;13.40;99.90;;;;;;5040453;28;20518;-66
2023/08/07 08:09:15;;;;;;;2.83;2.63;;;13.40;99.90;;;;;;5033319;28;20988;-65
2023/08/07 08:11:43;;;;;;;2.73;2.53;;;13.40;99.90;;;;;;5028310;28;20555;-66
2023/08/07 08:14:11;;;;;;;3.53;2.90;;;13.40;99.90;;;;;;5036914;28;20474;-65
2023/08/07 08:16:38;;;;;;;4.03;2.30;;;13.40;99.90;;;;;;5042082;28;20469;-66
2023/08/07 08:19:05;;;;;;;5.00;2.87;;;13.50;99.90;;;;;;5041766;28;20482;-66
2023/08/07 08:21:32;;;;;;;6.67;3.37;;;13.50;99.90;;;;;;5047421;28;21123;-66
2023/08/07 08:23:58;;;;;;;2.60;2.17;;;13.50;99.90;;;;;;5050678;28;20478;-65
2023/08/07 08:26:25;;;;;;;5.60;4.00;;;13.50;99.90;;;;;;5049799;28;20511;-66
2023/08/07 08:28:52;;;;;;;5.07;2.93;;;13.50;99.90;;;;;;5050028;28;21017;-66
2023/08/07 08:31:23;;;;;;;3.10;2.90;;;13.50;99.90;;;;;;5050194;28;20451;-66
2023/08/07 08:33:50;;;;;;;2.33;2.13;;;13.40;99.90;;;;;;5041002;28;20939;-66
2023/08/07 08:36:17;;;;;;;4.70;2.40;;;13.40;99.90;;;;;;5049605;28;20486;-67
2023/08/07 08:38:45;;;;;;;2.30;2.10;;;13.50;99.90;;;;;;5049861;28;21070;-65
2023/08/07 08:41:12;;;;;;;2.73;2.40;;;13.50;99.90;;;;;;5049757;28;20620;-66
2023/08/07 08:43:41;;;;;;;2.57;2.37;;;13.50;99.90;;;;;;5050385;28;20968;-66
2023/08/07 08:46:09;;;;;;;4.63;2.57;;;13.60;99.90;;;;;;5049475;28;20487;-67
2023/08/07 08:48:40;;;;;;;3.70;3.00;;;13.60;99.90;;;;;;5048988;28;21004;-66
2023/08/07 08:51:09;;;;;;;1.90;1.80;;;13.70;99.90;;;;;;5043483;28;20454;-66
2023/08/07 08:53:36;;;;;;;3.03;2.50;;;13.70;99.90;;;;;;5049827;28;20445;-67
2023/08/07 08:56:03;;;;;;;5.20;2.40;;;13.70;99.90;;;;;;5048988;28;20538;-66
2023/08/07 08:58:31;;;;;;;4.33;3.30;;;13.80;99.90;;;;;;5049957;28;20478;-65
2023/08/07 09:00:59;;;;;;;2.73;2.53;;;13.80;99.90;;;;;;5049762;28;20531;-66
2023/08/07 09:03:26;;;;;;;2.87;2.60;;;13.90;99.90;;;;;;5041198;28;21034;-66
2023/08/07 09:05:58;;;;;;;3.10;2.50;;;13.80;99.90;;;;;;5045386;28;20488;-66
2023/08/07 09:08:28;;;;;;;2.87;2.67;;;13.80;99.90;;;;;;5029807;28;20466;-66
2023/08/07 09:10:56;;;;;;;2.70;2.50;;;13.80;99.90;;;;;;5022208;28;20450;-66
2023/08/07 09:13:25;;;;;;;3.40;2.80;;;13.80;99.90;;;;;;5019955;28;20913;-66
2023/08/07 09:15:53;;;;;;;3.67;2.53;;;13.80;99.90;;;;;;5026950;28;20444;-66
2023/08/07 09:18:20;;;;;;;4.67;2.73;;;13.80;99.90;;;;;;5039889;28;20469;-66
2023/08/07 09:20:50;;;;;;;2.97;2.77;;;13.80;99.90;;;;;;5025177;28;20442;-66
2023/08/07 09:23:18;;;;;;;5.93;2.83;;;13.80;99.90;;;;;;5019139;28;20532;-66
2023/08/07 09:25:45;;;;;;;5.47;2.80;;;13.80;99.90;;;;;;5017033;28;20489;-65
2023/08/07 09:28:12;;;;;;;4.17;3.77;;;13.80;99.90;;;;;;5025550;28;20465;-66
2023/08/07 09:30:42;;;;;;;3.67;2.60;;;13.80;99.90;;;;;;5013532;28;20893;-66
2023/08/07 09:33:08;;;;;;;3.10;2.80;;;13.90;99.90;;;;;;5019367;28;20464;-66
2023/08/07 09:35:35;;;;;;;4.07;2.73;;;13.90;99.90;;;;;;5034140;28;20533;-66
2023/08/07 09:38:03;;;;;;;4.90;4.30;;;13.90;99.90;;;;;;5045905;28;20555;-66
2023/08/07 09:40:32;;;;;;;2.80;2.27;;;14.00;99.90;;;;;;5027418;28;20531;-66
2023/08/07 09:43:02;;;;;;;2.83;2.63;;;14.00;99.90;;;;;;5016026;28;20520;-66
2023/08/07 09:45:30;;;;;;;3.03;2.83;;;14.00;99.90;;;;;;5018587;28;20445;-66
2023/08/07 09:48:01;;;;;;;6.23;3.43;;;14.00;99.90;;;;;;5023532;28;20560;-66
2023/08/07 09:50:28;;;;;;;3.77;3.30;;;14.00;99.90;;;;;;5013011;28;20446;-66
2023/08/07 09:52:56;;;;;;;2.73;2.53;;;14.00;99.90;;;;;;5023010;28;20456;-66
2023/08/07 09:55:23;;;;;;;3.63;2.63;;;14.00;99.90;;;;;;5019097;28;20449;-66
2023/08/07 09:57:52;;;;;;;5.60;2.60;;;14.20;99.90;;;;;;5014991;28;20912;-67
2023/08/07 10:00:20;;;;;;;3.20;3.00;;;14.20;99.90;;;;;;5025244;28;20452;-67
2023/08/07 10:02:48;;;;;;;2.40;2.20;;;14.20;99.90;;;;;;5014022;28;20454;-66
2023/08/07 10:05:16;;;;;;;2.93;2.70;;;14.20;99.90;;;;;;5020447;28;20450;-67
2023/08/07 10:07:43;;;;;;;2.63;2.17;;;14.30;99.90;;;;;;5020799;28;20982;-68
2023/08/07 10:10:11;;;;;;;2.50;2.30;;;14.30;99.90;;;;;;5012765;28;20450;-67
2023/08/07 10:12:38;;;;;;;6.43;3.00;;;14.30;99.90;;;;;;5025037;28;21276;-66
2023/08/07 10:15:07;;;;;;;4.70;2.97;;;14.30;99.90;;;;;;5016719;28;20518;-67
2023/08/07 10:17:34;;;;;;;4.70;2.90;;;14.30;99.90;;;;;;5016490;28;20534;-67
2023/08/07 10:20:02;;;;;;;3.03;2.83;;;14.40;99.90;;;;;;5036623;28;20469;-66
2023/08/07 10:22:31;;;;;;;2.67;2.47;;;14.40;99.90;;;;;;5042242;28;20548;-66
2023/08/07 10:25:02;;;;;;;2.70;2.30;;;14.40;99.90;;;;;;5022325;28;20452;-66
2023/08/07 10:27:36;;;;;;;2.50;2.30;;;14.40;99.90;;;;;;5018530;28;20484;-66
2023/08/07 10:30:05;;;;;;;2.70;2.23;;;14.40;99.90;;;;;;5019055;28;20445;-67
2023/08/07 10:32:34;;;;;;;3.17;2.87;;;14.50;99.90;;;;;;5025767;28;20536;-67
2023/08/07 10:35:04;;;;;;;2.53;1.80;;;14.50;99.90;;;;;;5015266;28;20536;-66
2023/08/07 10:37:40;;;;;;;3.90;2.00;;;14.60;99.90;;;;;;5016712;28;20442;-67
2023/08/07 10:40:09;;;;;;;2.67;2.47;;;14.60;99.90;;;;;;5032602;28;20530;-66
2023/08/07 10:42:56;;;;;;;2.13;1.93;;;14.60;99.90;;;;;;5024851;28;20836;-66
2023/08/07 10:45:24;;;;;;;2.47;2.27;;;14.60;99.90;;;;;;5018291;28;20451;-66
2023/08/07 10:48:07;;;;;;;2.47;2.27;;;14.60;99.90;;;;;;5013650;28;20521;-66
2023/08/07 10:50:35;;;;;;;2.53;2.17;;;14.60;99.90;;;;;;5024403;28;20447;-67
2023/08/07 10:53:03;;;;;;;2.20;2.00;;;14.50;99.90;;;;;;5013360;28;20480;-67
2023/08/07 10:55:44;;;;;;;2.37;2.27;;;14.40;99.90;;;;;;5017022;28;20537;-66
2023/08/07 10:58:23;;;;;;;3.93;2.27;;;14.40;99.90;;;;;;5023730;28;20472;-66
2023/08/07 11:00:52;;;;;;;2.47;2.23;;;14.30;99.90;;;;;;5019990;28;20467;-66
2023/08/07 11:03:28;;;;;;;2.63;2.03;;;14.30;99.90;;;;;;5044880;28;20563;-66
2023/08/07 11:05:58;;;;;;;3.07;2.87;;;14.20;99.90;;;;;;5029825;28;20473;-65
2023/08/07 11:08:25;;;;;;;1.97;1.87;;;14.20;99.90;;;;;;5041897;28;20460;-66
2023/08/07 11:10:52;;;;;;;3.30;2.60;;;14.10;99.90;;;;;;5022158;28;20460;-66
2023/08/07 11:13:19;;;;;;;4.77;2.33;;;14.00;99.90;;;;;;5017043;28;20452;-66
2023/08/07 11:15:48;;;;;;;2.90;2.20;;;14.00;99.90;;;;;;5014870;28;20457;-67
2023/08/07 11:18:16;;;;;;;1.73;1.53;;;14.00;99.90;;;;;;5024177;28;20465;-67
2023/08/07 11:20:45;;;;;;;2.77;2.00;;;14.00;99.90;;;;;;5012041;28;20455;-66
2023/08/07 11:23:12;;;;;;;3.90;2.80;;;14.00;99.90;;;;;;5019497;28;20460;-66
2023/08/07 11:25:39;;;;;;;3.57;3.23;;;14.00;99.90;;;;;;5019493;28;20578;-66
2023/08/07 11:28:08;;;;;;;5.20;2.83;;;14.10;99.90;;;;;;5034712;28;20496;-66
2023/08/07 11:30:35;;;;;;;3.23;2.63;;;14.10;99.90;;;;;;5041139;28;20456;-66
2023/08/07 11:33:02;;;;;;;3.30;2.53;;;14.10;99.90;;;;;;5020680;28;20456;-66
2023/08/07 11:35:29;;;;;;;2.87;2.67;;;14.20;99.90;;;;;;5017499;28;20453;-66
2023/08/07 11:37:58;;;;;;;3.73;2.70;;;14.20;99.90;;;;;;5012386;28;21107;-66
2023/08/07 11:40:24;;;;;;;2.60;2.40;;;14.20;99.90;;;;;;5022730;28;20988;-66
2023/08/07 11:42:51;;;;;;;3.40;2.70;;;14.20;99.90;;;;;;5012956;28;20451;-66
2023/08/07 11:45:18;;;;;;;2.40;2.20;;;14.30;99.90;;;;;;5018197;28;20560;-65
2023/08/07 11:47:45;;;;;;;3.47;2.53;;;14.30;99.90;;;;;;5019493;28;20867;-65
2023/08/07 11:50:12;;;;;;;3.13;2.00;;;14.30;99.90;;;;;;5010518;28;20445;-67
2023/08/07 11:52:40;;;;;;;3.00;2.20;;;14.30;99.90;;;;;;5023759;28;20467;-66
2023/08/07 11:55:09;;;;;;;2.40;2.13;;;14.30;99.90;;;;;;5014681;28;20449;-66
2023/08/07 11:57:39;;;;;;;2.63;2.40;;;14.40;99.90;;;;;;5015058;28;20891;-66
2023/08/07 12:00:12;;;;;;;3.27;2.50;;;14.40;99.90;;;;;;5022906;28;20541;-66
2023/08/07 12:02:42;;;;;;;2.47;2.27;;;14.40;99.90;;;;;;5010873;28;20524;-66
2023/08/07 12:05:10;;;;;;;4.63;2.20;;;14.50;99.90;;;;;;5018842;28;20450;-66
2023/08/07 12:07:37;;;;;;;4.30;2.20;;;14.50;99.90;;;;;;5018151;28;20866;-66
2023/08/07 12:10:07;;;;;;;2.57;1.90;;;14.50;99.90;;;;;;5011400;28;20478;-66
2023/08/07 12:12:37;;;;;;;1.83;1.73;;;14.60;99.90;;;;;;5035323;28;20437;-67
2023/08/07 12:15:05;;;;;;;4.00;2.00;;;14.60;99.90;;;;;;5039316;28;20528;-66
2023/08/07 12:17:33;;;;;;;3.10;1.83;;;14.70;99.90;;;;;;5015167;28;20472;-65
2023/08/07 12:19:59;;;;;;;3.73;2.23;;;14.70;99.90;;;;;;5021260;28;20445;-66
2023/08/07 12:22:28;;;;;;;1.90;1.73;;;14.80;99.90;;;;;;5010068;28;20452;-66
2023/08/07 12:24:55;;;;;;;1.97;1.83;;;14.80;99.90;;;;;;5020731;28;20446;-66
2023/08/07 12:27:22;;;;;;;2.40;2.20;;;14.70;99.90;;;;;;5015743;28;20477;-66
2023/08/07 12:29:50;;;;;;;2.20;2.00;;;14.80;99.90;;;;;;5013384;28;20466;-65
2023/08/07 12:32:17;;;;;;;1.97;1.87;;;14.80;99.90;;;;;;5023275;28;20448;-66
2023/08/07 12:34:44;;;;;;;2.23;2.03;;;14.90;99.90;;;;;;5011373;28;21044;-66
2023/08/07 12:37:11;;;;;;;2.70;2.07;;;14.90;99.90;;;;;;5018355;28;20531;-66
2023/08/07 12:39:37;;;;;;;3.10;1.97;;;14.90;99.90;;;;;;5017775;28;20477;-66
2023/08/07 12:42:06;;;;;;;3.57;2.10;;;14.90;99.90;;;;;;5011930;28;21312;-66
2023/08/07 12:44:32;;;;;;;2.40;1.90;;;14.90;99.90;;;;;;5025088;28;20516;-65
2023/08/07 12:47:01;;;;;;;1.97;1.80;;;14.80;99.90;;;;;;5029164;28;20892;-66
2023/08/07 12:49:27;;;;;;;2.83;2.47;;;14.70;99.90;;;;;;5019650;28;20470;-66
2023/08/07 12:51:56;;;;;;;2.37;2.00;;;14.60;99.90;;;;;;5023830;28;20457;-66